createdAt,value
2023-04-27T00:00:09.403Z,2.63
2023-04-27T00:00:42.856Z,2.63
2023-04-27T00:01:16.148Z,2.63
2023-04-27T00:01:48.737Z,2.63
2023-04-27T00:02:23.489Z,2.63
2023-04-27T00:02:56.769Z,2.63
2023-04-27T00:03:29.580Z,2.63
2023-04-27T00:04:05.362Z,2.56
2023-04-27T00:04:38.256Z,2.56
2023-04-27T00:05:11.747Z,2.56
2023-04-27T00:05:45.637Z,2.56
2023-04-27T00:06:18.312Z,2.56
2023-04-27T00:06:51.619Z,2.56
2023-04-27T00:07:26.274Z,2.56
2023-04-27T00:07:58.759Z,2.56
2023-04-27T00:08:32.637Z,2.56
2023-04-27T00:09:06.233Z,2.56
2023-04-27T00:09:39.038Z,2.56
2023-04-27T00:10:12.265Z,2.56
2023-04-27T00:10:45.929Z,2.56
2023-04-27T00:11:18.385Z,2.50
2023-04-27T00:11:50.881Z,2.50
2023-04-27T00:12:24.474Z,2.50
2023-04-27T00:12:56.953Z,2.50
2023-04-27T00:13:29.611Z,2.50
2023-04-27T00:14:02.100Z,2.50
2023-04-27T00:14:35.989Z,2.50
2023-04-27T00:15:09.777Z,2.50
2023-04-27T00:15:42.265Z,2.50
2023-04-27T00:16:15.807Z,2.50
2023-04-27T00:16:48.388Z,2.50
2023-04-27T00:17:23.671Z,2.44
2023-04-27T00:17:58.492Z,2.44
2023-04-27T00:18:31.356Z,2.44
2023-04-27T00:19:04.341Z,2.44
2023-04-27T00:19:37.836Z,2.44
2023-04-27T00:20:12.222Z,2.44
2023-04-27T00:20:45.716Z,2.44
2023-04-27T00:21:18.218Z,2.44
2023-04-27T00:21:50.791Z,2.44
2023-04-27T00:22:24.427Z,2.44
2023-04-27T00:22:56.953Z,2.44
2023-04-27T00:23:30.873Z,2.44
2023-04-27T00:24:04.695Z,2.44
2023-04-27T00:24:37.184Z,2.44
2023-04-27T00:25:10.018Z,2.44
2023-04-27T00:25:43.521Z,2.44
2023-04-27T00:26:16.082Z,2.44
2023-04-27T00:26:51.032Z,2.44
2023-04-27T00:27:24.795Z,2.44
2023-04-27T00:27:57.304Z,2.44
2023-04-27T00:28:30.863Z,2.44
2023-04-27T00:29:05.691Z,2.44
2023-04-27T00:29:42.616Z,2.44
2023-04-27T00:30:15.342Z,2.44
2023-04-27T00:30:48.919Z,2.44
2023-04-27T00:31:24.821Z,2.44
2023-04-27T00:31:57.359Z,2.44
2023-04-27T00:32:30.961Z,2.44
2023-04-27T00:33:03.696Z,2.44
2023-04-27T00:33:36.325Z,2.44
2023-04-27T00:34:09.932Z,2.44
2023-04-27T00:34:42.365Z,2.44
2023-04-27T00:35:15.013Z,2.44
2023-04-27T00:35:49.030Z,2.44
2023-04-27T00:36:21.544Z,2.44
2023-04-27T00:36:54.078Z,2.44
2023-04-27T00:37:27.535Z,2.38
2023-04-27T00:38:00.027Z,2.38
2023-04-27T00:38:34.063Z,2.38
2023-04-27T00:39:07.618Z,2.44
2023-04-27T00:39:40.133Z,2.38
2023-04-27T00:40:13.099Z,2.38
2023-04-27T00:40:46.594Z,2.38
2023-04-27T00:41:20.115Z,2.38
2023-04-27T00:41:53.193Z,2.38
2023-04-27T00:42:26.319Z,2.38
2023-04-27T00:42:59.820Z,2.31
2023-04-27T00:43:32.967Z,2.31
2023-04-27T00:44:05.937Z,2.31
2023-04-27T00:44:39.962Z,2.31
2023-04-27T00:45:13.522Z,2.31
2023-04-27T00:45:46.317Z,2.31
2023-04-27T00:46:21.592Z,2.31
2023-04-27T00:46:54.411Z,2.25
2023-04-27T00:47:27.258Z,2.25
2023-04-27T00:48:01.594Z,2.25
2023-04-27T00:48:34.153Z,2.25
2023-04-27T00:49:06.713Z,2.25
2023-04-27T00:49:39.749Z,2.25
2023-04-27T00:50:13.530Z,2.19
2023-04-27T00:50:46.110Z,2.19
2023-04-27T00:51:18.583Z,2.19
2023-04-27T00:51:52.161Z,2.19
2023-04-27T00:52:25.510Z,2.19
2023-04-27T00:52:58.088Z,2.19
2023-04-27T00:53:32.580Z,2.19
2023-04-27T00:54:06.833Z,2.19
2023-04-27T00:54:39.486Z,2.19
2023-04-27T00:55:12.981Z,2.19
2023-04-27T00:55:46.945Z,2.19
2023-04-27T00:56:19.506Z,2.19
2023-04-27T00:56:54.225Z,2.13
2023-04-27T00:57:27.785Z,2.13
2023-04-27T00:58:00.303Z,2.13
2023-04-27T00:58:33.855Z,2.13
2023-04-27T00:59:06.368Z,2.13
2023-04-27T00:59:38.818Z,2.13
2023-04-27T01:00:13.229Z,2.13
2023-04-27T01:00:45.680Z,2.13
2023-04-27T01:01:27.672Z,2.13
2023-04-27T01:02:01.669Z,2.13
2023-04-27T01:02:34.781Z,2.13
2023-04-27T01:03:08.326Z,2.13
2023-04-27T01:03:43.475Z,2.13
2023-04-27T01:04:17.138Z,2.13
2023-04-27T01:04:51.064Z,2.13
2023-04-27T01:05:27.163Z,2.13
2023-04-27T01:06:01.586Z,2.06
2023-04-27T01:06:34.249Z,2.13
2023-04-27T01:07:08.961Z,2.06
2023-04-27T01:07:41.739Z,2.06
2023-04-27T01:08:14.273Z,2.06
2023-04-27T01:08:47.949Z,2.06
2023-04-27T01:09:21.876Z,2.06
2023-04-27T01:09:56.350Z,2.13
2023-04-27T01:10:29.834Z,2.13
2023-04-27T01:11:02.346Z,2.13
2023-04-27T01:11:35.049Z,2.13
2023-04-27T01:12:09.194Z,2.13
2023-04-27T01:12:41.739Z,2.06
2023-04-27T01:13:14.202Z,2.06
2023-04-27T01:13:47.708Z,2.06
2023-04-27T01:14:20.436Z,2.13
2023-04-27T01:14:52.980Z,2.06
2023-04-27T01:15:26.851Z,2.06
2023-04-27T01:15:59.326Z,2.06
2023-04-27T01:16:32.724Z,2.06
2023-04-27T01:17:09.955Z,2.06
2023-04-27T01:17:44.213Z,2.06
2023-04-27T01:18:16.829Z,2.06
2023-04-27T01:18:50.323Z,2.00
2023-04-27T01:19:23.445Z,2.00
2023-04-27T01:19:56.783Z,2.06
2023-04-27T01:20:31.932Z,2.00
2023-04-27T01:21:04.589Z,2.06
2023-04-27T01:21:37.739Z,2.06
2023-04-27T01:22:11.185Z,2.00
2023-04-27T01:22:43.948Z,2.00
2023-04-27T01:23:17.874Z,2.00
2023-04-27T01:23:50.368Z,2.00
2023-04-27T01:24:23.786Z,2.00
2023-04-27T01:24:56.255Z,2.00
2023-04-27T01:25:29.252Z,2.00
2023-04-27T01:26:02.774Z,2.00
2023-04-27T01:26:35.634Z,2.00
2023-04-27T01:27:08.251Z,2.00
2023-04-27T01:27:42.716Z,2.00
2023-04-27T01:28:17.745Z,2.00
2023-04-27T01:28:50.255Z,2.00
2023-04-27T01:29:22.706Z,2.00
2023-04-27T01:29:56.203Z,2.00
2023-04-27T01:30:30.127Z,2.00
2023-04-27T01:31:04.685Z,2.00
2023-04-27T01:31:38.805Z,2.00
2023-04-27T01:32:12.950Z,2.00
2023-04-27T01:32:45.581Z,2.00
2023-04-27T01:33:19.053Z,2.00
2023-04-27T01:33:53.983Z,2.00
2023-04-27T01:34:27.584Z,2.00
2023-04-27T01:35:00.105Z,2.00
2023-04-27T01:35:32.835Z,2.00
2023-04-27T01:36:07.594Z,2.00
2023-04-27T01:36:40.374Z,2.00
2023-04-27T01:37:14.170Z,2.00
2023-04-27T01:37:46.884Z,2.00
2023-04-27T01:38:20.741Z,2.00
2023-04-27T01:38:54.217Z,2.00
2023-04-27T01:39:26.966Z,2.00
2023-04-27T01:39:59.474Z,2.00
2023-04-27T01:40:32.931Z,2.00
2023-04-27T01:41:05.621Z,2.00
2023-04-27T01:41:38.233Z,2.00
2023-04-27T01:42:11.294Z,2.00
2023-04-27T01:42:46.542Z,2.00
2023-04-27T01:43:19.050Z,1.94
2023-04-27T01:43:51.573Z,1.94
2023-04-27T01:44:25.027Z,1.94
2023-04-27T01:44:57.681Z,1.94
2023-04-27T01:45:30.420Z,1.94
2023-04-27T01:46:10.216Z,1.94
2023-04-27T01:46:43.001Z,1.94
2023-04-27T01:47:17.211Z,1.94
2023-04-27T01:47:52.962Z,1.94
2023-04-27T01:48:26.294Z,1.94
2023-04-27T01:48:59.794Z,2.00
2023-04-27T01:49:33.864Z,2.00
2023-04-27T01:50:07.238Z,2.00
2023-04-27T01:50:40.918Z,1.94
2023-04-27T01:51:13.667Z,2.00
2023-04-27T01:51:46.114Z,2.00
2023-04-27T01:52:19.647Z,2.00
2023-04-27T01:52:52.219Z,2.00
2023-04-27T01:53:26.264Z,2.00
2023-04-27T01:54:00.828Z,2.00
2023-04-27T01:54:33.371Z,2.00
2023-04-27T01:55:06.926Z,2.00
2023-04-27T01:55:40.911Z,2.00
2023-04-27T01:56:13.535Z,2.00
2023-04-27T01:56:46.081Z,2.00
2023-04-27T01:57:19.673Z,2.00
2023-04-27T01:57:52.228Z,2.00
2023-04-27T01:58:25.102Z,2.00
2023-04-27T01:58:59.291Z,2.00
2023-04-27T01:59:31.816Z,2.00
2023-04-27T02:00:05.152Z,2.00
2023-04-27T02:00:54.071Z,2.00
2023-04-27T02:01:26.671Z,2.00
2023-04-27T02:01:59.230Z,2.00
2023-04-27T02:02:33.117Z,2.00
2023-04-27T02:03:05.947Z,2.00
2023-04-27T02:03:38.757Z,2.00
2023-04-27T02:04:12.935Z,2.00
2023-04-27T02:04:45.733Z,2.00
2023-04-27T02:05:18.513Z,2.00
2023-04-27T02:05:53.015Z,2.00
2023-04-27T02:06:25.565Z,2.00
2023-04-27T02:06:58.099Z,2.00
2023-04-27T02:07:31.678Z,2.00
2023-04-27T02:08:04.413Z,2.00
2023-04-27T02:08:39.261Z,2.00
2023-04-27T02:09:14.626Z,2.00
2023-04-27T02:09:47.259Z,2.00
2023-04-27T02:10:22.181Z,2.00
2023-04-27T02:10:54.698Z,2.00
2023-04-27T02:11:29.116Z,1.94
2023-04-27T02:12:02.741Z,1.94
2023-04-27T02:12:38.899Z,1.94
2023-04-27T02:13:14.318Z,1.94
2023-04-27T02:13:46.783Z,1.94
2023-04-27T02:14:19.347Z,1.94
2023-04-27T02:14:53.853Z,1.94
2023-04-27T02:15:26.370Z,1.94
2023-04-27T02:16:02.106Z,1.94
2023-04-27T02:16:35.895Z,1.88
2023-04-27T02:17:08.536Z,1.88
2023-04-27T02:17:41.182Z,1.88
2023-04-27T02:18:15.750Z,1.88
2023-04-27T02:18:49.199Z,1.94
2023-04-27T02:19:22.246Z,1.94
2023-04-27T02:19:56.058Z,1.88
2023-04-27T02:20:30.864Z,1.88
2023-04-27T02:21:09.432Z,1.88
2023-04-27T02:21:43.334Z,1.88
2023-04-27T02:22:17.471Z,1.88
2023-04-27T02:22:50.082Z,1.88
2023-04-27T02:23:24.119Z,1.88
2023-04-27T02:23:58.012Z,1.88
2023-04-27T02:24:30.558Z,1.88
2023-04-27T02:25:04.124Z,1.88
2023-04-27T02:25:37.984Z,1.88
2023-04-27T02:26:17.642Z,1.88
2023-04-27T02:26:51.193Z,1.88
2023-04-27T02:27:24.520Z,1.88
2023-04-27T02:27:57.671Z,1.88
2023-04-27T02:28:32.221Z,1.88
2023-04-27T02:29:06.291Z,1.88
2023-04-27T02:29:39.614Z,1.88
2023-04-27T02:30:14.335Z,1.81
2023-04-27T02:30:47.512Z,1.81
2023-04-27T02:31:20.009Z,1.81
2023-04-27T02:31:53.572Z,1.81
2023-04-27T02:32:26.104Z,1.88
2023-04-27T02:32:59.545Z,1.81
2023-04-27T02:33:33.040Z,1.81
2023-04-27T02:34:05.534Z,1.81
2023-04-27T02:34:37.999Z,1.81
2023-04-27T02:35:11.967Z,1.81
2023-04-27T02:35:44.467Z,1.88
2023-04-27T02:36:17.113Z,1.81
2023-04-27T02:36:50.689Z,1.88
2023-04-27T02:37:23.246Z,1.88
2023-04-27T02:37:55.713Z,1.88
2023-04-27T02:38:31.370Z,1.88
2023-04-27T02:39:05.656Z,1.88
2023-04-27T02:39:38.112Z,1.88
2023-04-27T02:40:13.693Z,1.88
2023-04-27T02:40:46.236Z,1.88
2023-04-27T02:41:18.747Z,1.88
2023-04-27T02:41:52.206Z,1.88
2023-04-27T02:42:24.894Z,1.88
2023-04-27T02:42:57.419Z,1.88
2023-04-27T02:43:30.928Z,1.81
2023-04-27T02:44:03.411Z,1.81
2023-04-27T02:44:36.673Z,1.81
2023-04-27T02:45:10.854Z,1.88
2023-04-27T02:45:43.391Z,1.88
2023-04-27T02:46:16.254Z,1.81
2023-04-27T02:46:50.906Z,1.81
2023-04-27T02:47:23.418Z,1.81
2023-04-27T02:47:56.282Z,1.81
2023-04-27T02:48:29.871Z,1.81
2023-04-27T02:49:02.837Z,1.81
2023-04-27T02:49:36.766Z,1.81
2023-04-27T02:50:13.648Z,1.81
2023-04-27T02:50:46.410Z,1.81
2023-04-27T02:51:18.944Z,1.81
2023-04-27T02:51:55.014Z,1.81
2023-04-27T02:52:27.806Z,1.81
2023-04-27T02:53:00.371Z,1.81
2023-04-27T02:53:33.896Z,1.81
2023-04-27T02:54:07.800Z,1.81
2023-04-27T02:54:40.560Z,1.88
2023-04-27T02:55:14.502Z,1.88
2023-04-27T02:55:48.245Z,1.88
2023-04-27T02:56:20.933Z,1.88
2023-04-27T02:56:54.535Z,1.88
2023-04-27T02:57:27.695Z,1.88
2023-04-27T02:58:00.168Z,1.88
2023-04-27T02:58:33.943Z,1.88
2023-04-27T02:59:06.513Z,1.88
2023-04-27T02:59:39.487Z,1.88
2023-04-27T03:00:14.081Z,1.88
2023-04-27T03:00:47.594Z,1.94
2023-04-27T03:01:22.287Z,1.94
2023-04-27T03:01:54.852Z,1.94
2023-04-27T03:02:27.424Z,1.94
2023-04-27T03:03:02.341Z,1.94
2023-04-27T03:03:35.184Z,1.94
2023-04-27T03:04:07.974Z,1.94
2023-04-27T03:04:41.997Z,1.94
2023-04-27T03:05:14.613Z,1.94
2023-04-27T03:05:47.057Z,1.94
2023-04-27T03:06:20.555Z,1.94
2023-04-27T03:06:53.081Z,1.94
2023-04-27T03:07:25.828Z,1.94
2023-04-27T03:07:59.269Z,1.94
2023-04-27T03:08:31.974Z,1.94
2023-04-27T03:09:05.340Z,1.94
2023-04-27T03:09:40.241Z,1.94
2023-04-27T03:10:12.738Z,1.94
2023-04-27T03:10:45.211Z,1.94
2023-04-27T03:11:18.700Z,1.94
2023-04-27T03:11:51.252Z,1.94
2023-04-27T03:12:23.719Z,1.94
2023-04-27T03:12:57.280Z,1.94
2023-04-27T03:13:29.774Z,1.94
2023-04-27T03:14:02.323Z,1.94
2023-04-27T03:14:35.859Z,1.94
2023-04-27T03:15:09.302Z,1.94
2023-04-27T03:15:42.156Z,1.94
2023-04-27T03:16:15.784Z,1.94
2023-04-27T03:16:48.357Z,1.94
2023-04-27T03:17:20.953Z,1.94
2023-04-27T03:17:54.729Z,1.94
2023-04-27T03:18:27.343Z,1.94
2023-04-27T03:18:59.808Z,1.94
2023-04-27T03:19:33.277Z,1.94
2023-04-27T03:20:09.634Z,1.94
2023-04-27T03:20:42.072Z,1.94
2023-04-27T03:21:16.906Z,1.94
2023-04-27T03:21:49.472Z,1.94
2023-04-27T03:22:21.984Z,1.94
2023-04-27T03:22:55.415Z,1.94
2023-04-27T03:23:27.896Z,1.94
2023-04-27T03:24:00.401Z,1.94
2023-04-27T03:24:34.295Z,1.94
2023-04-27T03:25:08.968Z,1.88
2023-04-27T03:25:41.608Z,1.88
2023-04-27T03:26:16.178Z,1.88
2023-04-27T03:26:48.701Z,1.88
2023-04-27T03:27:21.242Z,1.88
2023-04-27T03:27:57.042Z,1.88
2023-04-27T03:28:29.593Z,1.88
2023-04-27T03:29:02.076Z,1.88
2023-04-27T03:29:35.654Z,1.88
2023-04-27T03:30:09.607Z,1.88
2023-04-27T03:30:43.130Z,1.88
2023-04-27T03:31:16.237Z,1.88
2023-04-27T03:31:49.007Z,1.88
2023-04-27T03:32:22.616Z,1.88
2023-04-27T03:32:55.189Z,1.88
2023-04-27T03:33:28.633Z,1.88
2023-04-27T03:34:02.200Z,1.88
2023-04-27T03:34:34.721Z,1.88
2023-04-27T03:35:08.191Z,1.88
2023-04-27T03:35:41.688Z,1.88
2023-04-27T03:36:15.143Z,1.88
2023-04-27T03:36:47.587Z,1.88
2023-04-27T03:37:20.100Z,1.88
2023-04-27T03:37:53.560Z,1.88
2023-04-27T03:38:26.823Z,1.88
2023-04-27T03:38:59.338Z,1.88
2023-04-27T03:39:32.896Z,1.81
2023-04-27T03:40:08.543Z,1.88
2023-04-27T03:40:41.337Z,1.88
2023-04-27T03:41:14.929Z,1.81
2023-04-27T03:41:47.390Z,1.81
2023-04-27T03:42:19.891Z,1.81
2023-04-27T03:42:59.266Z,1.81
2023-04-27T03:43:32.160Z,1.81
2023-04-27T03:44:04.867Z,1.81
2023-04-27T03:44:39.701Z,1.81
2023-04-27T03:45:12.639Z,1.81
2023-04-27T03:45:45.485Z,1.81
2023-04-27T03:46:19.242Z,1.81
2023-04-27T03:46:52.232Z,1.81
2023-04-27T03:47:24.938Z,1.75
2023-04-27T03:47:59.234Z,1.75
2023-04-27T03:48:32.221Z,1.75
2023-04-27T03:49:04.751Z,1.75
2023-04-27T03:49:38.475Z,1.75
2023-04-27T03:50:12.234Z,1.75
2023-04-27T03:50:44.997Z,1.75
2023-04-27T03:51:18.581Z,1.75
2023-04-27T03:51:52.380Z,1.75
2023-04-27T03:52:24.848Z,1.75
2023-04-27T03:52:57.330Z,1.75
2023-04-27T03:53:30.912Z,1.75
2023-04-27T03:54:03.623Z,1.75
2023-04-27T03:54:36.414Z,1.75
2023-04-27T03:55:11.654Z,1.75
2023-04-27T03:55:47.178Z,1.69
2023-04-27T03:56:20.732Z,1.69
2023-04-27T03:56:54.356Z,1.69
2023-04-27T03:57:26.812Z,1.69
2023-04-27T03:57:59.845Z,1.69
2023-04-27T03:58:33.291Z,1.69
2023-04-27T03:59:29.843Z,1.69
2023-04-27T04:00:04.882Z,1.69
2023-04-27T04:00:45.248Z,1.69
2023-04-27T04:01:18.977Z,1.69
2023-04-27T04:01:53.121Z,1.69
2023-04-27T04:02:25.993Z,1.69
2023-04-27T04:02:58.822Z,1.75
2023-04-27T04:03:32.635Z,1.75
2023-04-27T04:04:05.485Z,1.75
2023-04-27T04:04:39.315Z,1.75
2023-04-27T04:05:12.427Z,1.75
2023-04-27T04:05:47.291Z,1.75
2023-04-27T04:06:21.085Z,1.75
2023-04-27T04:06:56.017Z,1.75
2023-04-27T04:07:29.089Z,1.75
2023-04-27T04:08:03.365Z,1.75
2023-04-27T04:08:36.088Z,1.69
2023-04-27T04:09:09.007Z,1.69
2023-04-27T04:09:43.441Z,1.69
2023-04-27T04:10:18.501Z,1.69
2023-04-27T04:10:53.194Z,1.69
2023-04-27T04:11:27.318Z,1.69
2023-04-27T04:12:03.745Z,1.69
2023-04-27T04:12:36.354Z,1.69
2023-04-27T04:13:09.863Z,1.69
2023-04-27T04:13:42.711Z,1.63
2023-04-27T04:14:15.269Z,1.63
2023-04-27T04:14:50.159Z,1.63
2023-04-27T04:15:22.710Z,1.63
2023-04-27T04:16:04.093Z,1.63
2023-04-27T04:16:37.687Z,1.69
2023-04-27T04:17:10.915Z,1.69
2023-04-27T04:17:43.611Z,1.69
2023-04-27T04:18:17.110Z,1.69
2023-04-27T04:18:49.626Z,1.69
2023-04-27T04:19:22.318Z,1.69
2023-04-27T04:19:55.816Z,1.69
2023-04-27T04:20:28.918Z,1.69
2023-04-27T04:21:01.593Z,1.69
2023-04-27T04:21:35.120Z,1.69
2023-04-27T04:22:08.027Z,1.69
2023-04-27T04:22:43.560Z,1.69
2023-04-27T04:23:19.967Z,1.69
2023-04-27T04:23:52.890Z,1.69
2023-04-27T04:24:25.604Z,1.69
2023-04-27T04:24:59.065Z,1.69
2023-04-27T04:25:33.823Z,1.69
2023-04-27T04:26:07.390Z,1.69
2023-04-27T04:26:41.267Z,1.69
2023-04-27T04:27:13.982Z,1.69
2023-04-27T04:27:53.903Z,1.69
2023-04-27T04:28:26.418Z,1.69
2023-04-27T04:28:59.165Z,1.69
2023-04-27T04:29:32.829Z,1.69
2023-04-27T04:30:06.747Z,1.69
2023-04-27T04:30:41.083Z,1.69
2023-04-27T04:31:17.507Z,1.69
2023-04-27T04:31:50.479Z,1.69
2023-04-27T04:32:23.175Z,1.69
2023-04-27T04:32:57.179Z,1.69
2023-04-27T04:33:29.689Z,1.69
2023-04-27T04:34:04.941Z,1.69
2023-04-27T04:34:37.585Z,1.69
2023-04-27T04:35:11.253Z,1.69
2023-04-27T04:35:44.837Z,1.69
2023-04-27T04:36:17.374Z,1.69
2023-04-27T04:36:51.736Z,1.75
2023-04-27T04:37:26.197Z,1.69
2023-04-27T04:37:58.729Z,1.69
2023-04-27T04:38:32.924Z,1.75
2023-04-27T04:39:07.217Z,1.75
2023-04-27T04:39:39.766Z,1.75
2023-04-27T04:40:13.253Z,1.75
2023-04-27T04:40:48.193Z,1.75
2023-04-27T04:41:20.650Z,1.75
2023-04-27T04:41:53.176Z,1.75
2023-04-27T04:42:27.665Z,1.75
2023-04-27T04:43:00.384Z,1.75
2023-04-27T04:43:32.943Z,1.75
2023-04-27T04:44:09.197Z,1.75
2023-04-27T04:44:42.093Z,1.75
2023-04-27T04:45:15.373Z,1.75
2023-04-27T04:45:49.076Z,1.75
2023-04-27T04:46:24.755Z,1.75
2023-04-27T04:46:57.586Z,1.81
2023-04-27T04:47:34.208Z,1.81
2023-04-27T04:48:07.067Z,1.81
2023-04-27T04:48:41.604Z,1.81
2023-04-27T04:49:14.280Z,1.81
2023-04-27T04:49:46.989Z,1.81
2023-04-27T04:50:19.964Z,1.81
2023-04-27T04:50:53.595Z,1.81
2023-04-27T04:51:26.130Z,1.81
2023-04-27T04:51:58.826Z,1.81
2023-04-27T04:52:33.042Z,1.81
2023-04-27T04:53:05.680Z,1.81
2023-04-27T04:53:38.961Z,1.81
2023-04-27T04:54:12.512Z,1.88
2023-04-27T04:54:45.087Z,1.81
2023-04-27T04:55:17.840Z,1.88
2023-04-27T04:55:53.553Z,1.88
2023-04-27T04:56:26.400Z,1.88
2023-04-27T04:57:01.011Z,1.88
2023-04-27T04:57:34.599Z,1.88
2023-04-27T04:58:07.375Z,1.94
2023-04-27T04:58:40.122Z,1.94
2023-04-27T04:59:13.810Z,1.94
2023-04-27T04:59:46.469Z,1.94
2023-04-27T05:00:23.374Z,1.94
2023-04-27T05:00:55.906Z,1.94
2023-04-27T05:01:28.482Z,1.94
2023-04-27T05:02:02.047Z,1.94
2023-04-27T05:02:34.648Z,1.94
2023-04-27T05:03:08.688Z,1.94
2023-04-27T05:03:41.425Z,1.94
2023-04-27T05:04:14.456Z,1.94
2023-04-27T05:04:48.139Z,1.94
2023-04-27T05:05:21.230Z,1.94
2023-04-27T05:05:53.815Z,1.94
2023-04-27T05:06:27.664Z,2.00
2023-04-27T05:07:00.320Z,2.00
2023-04-27T05:07:33.288Z,2.00
2023-04-27T05:08:09.682Z,2.00
2023-04-27T05:08:42.222Z,2.00
2023-04-27T05:09:15.772Z,2.00
2023-04-27T05:09:48.331Z,2.00
2023-04-27T05:10:21.738Z,2.00
2023-04-27T05:10:55.645Z,2.00
2023-04-27T05:11:28.183Z,2.00
2023-04-27T05:12:03.206Z,2.00
2023-04-27T05:12:35.708Z,2.06
2023-04-27T05:13:09.652Z,2.06
2023-04-27T05:13:42.180Z,2.06
2023-04-27T05:14:15.092Z,2.06
2023-04-27T05:14:48.641Z,2.06
2023-04-27T05:15:22.933Z,2.06
2023-04-27T05:15:56.482Z,2.06
2023-04-27T05:16:29.023Z,2.13
2023-04-27T05:17:01.748Z,2.13
2023-04-27T05:17:35.581Z,2.13
2023-04-27T05:18:08.409Z,2.13
2023-04-27T05:18:41.657Z,2.13
2023-04-27T05:19:18.225Z,2.13
2023-04-27T05:19:50.812Z,2.19
2023-04-27T05:20:24.308Z,2.19
2023-04-27T05:20:56.895Z,2.19
2023-04-27T05:21:29.414Z,2.19
2023-04-27T05:22:02.953Z,2.19
2023-04-27T05:22:35.444Z,2.25
2023-04-27T05:23:08.035Z,2.25
2023-04-27T05:23:41.441Z,2.25
2023-04-27T05:24:13.924Z,2.25
2023-04-27T05:24:46.437Z,2.31
2023-04-27T05:25:20.016Z,2.31
2023-04-27T05:25:53.920Z,2.38
2023-04-27T05:26:26.430Z,2.38
2023-04-27T05:27:02.004Z,2.38
2023-04-27T05:27:34.853Z,2.44
2023-04-27T05:28:07.538Z,2.44
2023-04-27T05:28:40.969Z,2.44
2023-04-27T05:29:13.689Z,2.50
2023-04-27T05:29:47.360Z,2.50
2023-04-27T05:30:19.886Z,2.50
2023-04-27T05:30:52.958Z,2.56
2023-04-27T05:31:26.778Z,2.56
2023-04-27T05:31:59.513Z,2.63
2023-04-27T05:32:39.842Z,2.63
2023-04-27T05:33:12.747Z,2.69
2023-04-27T05:33:45.505Z,2.69
2023-04-27T05:34:19.155Z,2.75
2023-04-27T05:34:52.908Z,2.75
2023-04-27T05:35:25.574Z,2.75
2023-04-27T05:35:59.915Z,2.81
2023-04-27T05:36:32.694Z,2.88
2023-04-27T05:37:08.722Z,2.88
2023-04-27T05:37:41.211Z,2.88
2023-04-27T05:38:17.516Z,2.94
2023-04-27T05:38:49.997Z,2.94
2023-04-27T05:39:22.538Z,3.00
2023-04-27T05:39:56.014Z,3.06
2023-04-27T05:40:28.535Z,3.06
2023-04-27T05:41:02.581Z,3.13
2023-04-27T05:41:36.053Z,3.13
2023-04-27T05:42:08.805Z,3.19
2023-04-27T05:42:41.381Z,3.25
2023-04-27T05:43:14.830Z,3.25
2023-04-27T05:43:47.340Z,3.31
2023-04-27T05:44:21.060Z,3.31
2023-04-27T05:44:53.610Z,3.38
2023-04-27T05:45:26.510Z,3.38
2023-04-27T05:46:00.086Z,3.44
2023-04-27T05:46:33.480Z,3.44
2023-04-27T05:47:07.018Z,3.50
2023-04-27T05:47:39.784Z,3.56
2023-04-27T05:48:12.269Z,3.56
2023-04-27T05:48:45.810Z,3.63
2023-04-27T05:49:18.354Z,3.63
2023-04-27T05:49:51.819Z,3.69
2023-04-27T05:50:25.564Z,3.69
2023-04-27T05:51:01.738Z,3.75
2023-04-27T05:51:34.517Z,3.75
2023-04-27T05:52:10.065Z,3.81
2023-04-27T05:52:42.551Z,3.81
2023-04-27T05:53:15.036Z,3.88
2023-04-27T05:53:48.577Z,3.88
2023-04-27T05:54:21.069Z,3.94
2023-04-27T05:54:53.568Z,3.94
2023-04-27T05:55:27.071Z,4.00
2023-04-27T05:56:01.653Z,4.00
2023-04-27T05:56:34.158Z,4.06
2023-04-27T05:57:07.625Z,4.13
2023-04-27T05:57:41.369Z,4.13
2023-04-27T05:58:13.867Z,4.19
2023-04-27T05:58:47.414Z,4.25
2023-04-27T05:59:19.893Z,4.31
2023-04-27T05:59:53.542Z,4.31
2023-04-27T06:00:26.153Z,4.38
2023-04-27T06:00:59.676Z,4.44
2023-04-27T06:01:32.168Z,4.50
2023-04-27T06:02:05.658Z,4.50
2023-04-27T06:02:38.342Z,4.56
2023-04-27T06:03:11.331Z,4.63
2023-04-27T06:03:45.948Z,4.69
2023-04-27T06:04:19.216Z,4.69
2023-04-27T06:04:53.704Z,4.75
2023-04-27T06:05:26.811Z,4.75
2023-04-27T06:06:02.650Z,4.81
2023-04-27T06:06:35.819Z,4.81
2023-04-27T06:07:13.608Z,4.81
2023-04-27T06:07:47.325Z,4.88
2023-04-27T06:08:22.444Z,4.88
2023-04-27T06:08:55.936Z,4.88
2023-04-27T06:09:28.502Z,4.94
2023-04-27T06:10:01.207Z,4.94
2023-04-27T06:10:35.495Z,4.94
2023-04-27T06:11:09.710Z,4.94
2023-04-27T06:11:43.873Z,5.00
2023-04-27T06:12:16.870Z,5.00
2023-04-27T06:12:49.727Z,5.00
2023-04-27T06:13:23.489Z,5.06
2023-04-27T06:13:56.471Z,5.06
2023-04-27T06:14:30.808Z,5.06
2023-04-27T06:15:08.303Z,5.13
2023-04-27T06:15:43.584Z,5.13
2023-04-27T06:16:20.549Z,5.13
2023-04-27T06:16:53.094Z,5.19
2023-04-27T06:17:26.347Z,5.19
2023-04-27T06:18:00.138Z,5.25
2023-04-27T06:18:32.874Z,5.25
2023-04-27T06:19:22.654Z,5.31
2023-04-27T06:19:58.659Z,5.31
2023-04-27T06:20:32.043Z,5.31
2023-04-27T06:21:07.186Z,5.38
2023-04-27T06:21:40.982Z,5.38
2023-04-27T06:22:26.556Z,5.44
2023-04-27T06:23:00.139Z,5.44
2023-04-27T06:23:33.616Z,5.50
2023-04-27T06:24:07.558Z,5.56
2023-04-27T06:24:40.340Z,5.56
2023-04-27T06:25:14.626Z,5.63
2023-04-27T06:25:47.659Z,5.63
2023-04-27T06:26:22.778Z,5.63
2023-04-27T06:26:55.376Z,5.69
2023-04-27T06:27:27.860Z,5.75
2023-04-27T06:28:01.532Z,5.75
2023-04-27T06:28:34.065Z,5.81
2023-04-27T06:29:08.370Z,5.88
2023-04-27T06:29:41.006Z,5.88
2023-04-27T06:30:14.957Z,5.94
2023-04-27T06:30:47.840Z,6.00
2023-04-27T06:31:21.359Z,6.00
2023-04-27T06:31:53.924Z,6.06
2023-04-27T06:32:27.564Z,6.06
2023-04-27T06:33:00.220Z,6.06
2023-04-27T06:33:32.911Z,6.13
2023-04-27T06:34:06.629Z,6.13
2023-04-27T06:34:39.110Z,6.13
2023-04-27T06:35:11.829Z,6.13
2023-04-27T06:35:47.382Z,6.19
2023-04-27T06:36:20.861Z,6.19
2023-04-27T06:36:54.328Z,6.19
2023-04-27T06:37:26.986Z,6.19
2023-04-27T06:37:59.517Z,6.19
2023-04-27T06:38:33.204Z,6.19
2023-04-27T06:39:11.843Z,6.25
2023-04-27T06:39:44.705Z,6.25
2023-04-27T06:40:18.233Z,6.25
2023-04-27T06:40:53.789Z,6.25
2023-04-27T06:41:29.386Z,6.31
2023-04-27T06:42:03.864Z,6.31
2023-04-27T06:42:39.004Z,6.25
2023-04-27T06:43:11.728Z,6.25
2023-04-27T06:43:48.079Z,6.25
2023-04-27T06:44:21.142Z,6.25
2023-04-27T06:44:55.554Z,6.25
2023-04-27T06:45:29.513Z,6.31
2023-04-27T06:46:02.780Z,6.31
2023-04-27T06:46:37.039Z,6.31
2023-04-27T06:47:12.651Z,6.38
2023-04-27T06:47:45.498Z,6.44
2023-04-27T06:48:19.279Z,6.44
2023-04-27T06:48:52.644Z,6.50
2023-04-27T06:49:25.475Z,6.50
2023-04-27T06:49:58.963Z,6.50
2023-04-27T06:50:31.746Z,6.56
2023-04-27T06:51:04.781Z,6.56
2023-04-27T06:51:38.680Z,6.63
2023-04-27T06:52:11.438Z,6.63
2023-04-27T06:52:43.937Z,6.69
2023-04-27T06:53:18.033Z,6.69
2023-04-27T06:53:51.235Z,6.75
2023-04-27T06:54:23.730Z,6.75
2023-04-27T06:54:57.448Z,6.81
2023-04-27T06:55:30.018Z,6.81
2023-04-27T06:56:04.063Z,6.81
2023-04-27T06:56:37.932Z,6.88
2023-04-27T06:57:10.825Z,6.94
2023-04-27T06:57:44.282Z,6.94
2023-04-27T06:58:16.827Z,7.00
2023-04-27T06:58:50.311Z,7.00
2023-04-27T06:59:26.433Z,7.00
2023-04-27T06:59:58.865Z,7.00
2023-04-27T07:00:32.624Z,7.06
2023-04-27T07:01:05.403Z,7.13
2023-04-27T07:01:41.855Z,7.13
2023-04-27T07:02:14.413Z,7.19
2023-04-27T07:02:47.996Z,7.25
2023-04-27T07:03:21.276Z,7.31
2023-04-27T07:03:55.323Z,7.38
2023-04-27T07:04:28.230Z,7.44
2023-04-27T07:05:01.019Z,7.50
2023-04-27T07:05:35.916Z,7.50
2023-04-27T07:06:08.476Z,7.56
2023-04-27T07:06:41.010Z,7.56
2023-04-27T07:07:14.476Z,7.63
2023-04-27T07:07:46.994Z,7.69
2023-04-27T07:08:19.500Z,7.75
2023-04-27T07:08:53.002Z,7.81
2023-04-27T07:09:27.855Z,7.94
2023-04-27T07:10:00.508Z,8.00
2023-04-27T07:10:34.203Z,8.06
2023-04-27T07:11:06.688Z,8.13
2023-04-27T07:11:41.515Z,8.19
2023-04-27T07:12:14.273Z,8.25
2023-04-27T07:12:47.123Z,8.25
2023-04-27T07:13:20.635Z,8.25
2023-04-27T07:13:53.240Z,8.31
2023-04-27T07:14:26.226Z,8.31
2023-04-27T07:14:59.644Z,8.38
2023-04-27T07:15:32.212Z,8.44
2023-04-27T07:16:05.416Z,8.50
2023-04-27T07:16:39.124Z,8.56
2023-04-27T07:17:11.725Z,8.63
2023-04-27T07:17:44.246Z,8.69
2023-04-27T07:18:17.780Z,8.75
2023-04-27T07:18:50.437Z,8.75
2023-04-27T07:19:22.916Z,8.81
2023-04-27T07:19:56.532Z,8.88
2023-04-27T07:20:29.114Z,8.88
2023-04-27T07:21:01.836Z,8.94
2023-04-27T07:21:35.526Z,8.94
2023-04-27T07:22:08.169Z,8.94
2023-04-27T07:22:40.869Z,8.94
2023-04-27T07:23:14.608Z,8.94
2023-04-27T07:23:47.101Z,9.00
2023-04-27T07:24:20.393Z,9.06
2023-04-27T07:24:53.932Z,9.13
2023-04-27T07:25:26.463Z,9.13
2023-04-27T07:25:59.995Z,9.13
2023-04-27T07:26:32.816Z,9.13
2023-04-27T07:27:08.203Z,9.19